Time;durP1;ratioP1;P1;durP2;ratioP2;P2;SDS_P1;SDS_P2;PMS_P1;PMS_P2;Temp;Humidity;BMP_temperature;BMP_pressure;BME280_temperature;BME280_humidity;BME280_pressure;Samples;Min_cycle;Max_cycle;Signal;HPM_P1;HPM_P2
2023/04/05 00:01:52;;;;;;;14.02;4.28;;;;;;;;;;5075847;28;20069;-67
2023/04/05 00:04:19;;;;;;;8.82;4.18;;;;;;;;;;5087279;28;20028;-66
2023/04/05 00:06:45;;;;;;;11.40;3.75;;;;;;;;;;5087036;28;20024;-70
2023/04/05 00:09:10;;;;;;;10.82;3.90;;;;;;;;;;5087190;28;20012;-69
2023/04/05 00:11:35;;;;;;;8.20;3.90;;;;;;;;;;5087877;28;20027;-67
2023/04/05 00:14:01;;;;;;;11.20;3.45;;;;;;;;;;5087792;28;20027;-69
2023/04/05 00:16:27;;;;;;;10.75;3.83;;;;;;;;;;5087054;28;20024;-66
2023/04/05 00:18:53;;;;;;;12.73;3.70;;;;;;;;;;5086155;28;20035;-68
2023/04/05 00:21:21;;;;;;;7.97;3.60;;;;;;;;;;5087346;28;20501;-68
2023/04/05 00:23:53;;;;;;;8.23;3.38;;;;;;;;;;5087260;28;20028;-65
2023/04/05 00:26:19;;;;;;;8.43;3.38;;;;;;;;;;5087407;28;20028;-68
2023/04/05 00:28:46;;;;;;;21.85;3.60;;;;;;;;;;5069593;28;20097;-68
2023/04/05 00:31:11;;;;;;;9.77;3.45;;;;;;;;;;5088260;28;20016;-67
2023/04/05 00:33:36;;;;;;;9.25;3.33;;;;;;;;;;5086698;28;20020;-66
2023/04/05 00:36:09;;;;;;;12.05;4.20;;;;;;;;;;5087157;28;20034;-69
2023/04/05 00:38:34;;;;;;;9.00;3.58;;;;;;;;;;5085072;28;20020;-67
2023/04/05 00:41:00;;;;;;;7.32;3.42;;;;;;;;;;5085501;28;20035;-66
2023/04/05 00:43:25;;;;;;;9.85;4.13;;;;;;;;;;5087401;28;20119;-67
2023/04/05 00:45:50;;;;;;;10.95;3.92;;;;;;;;;;5087541;28;20388;-66
2023/04/05 00:48:15;;;;;;;12.00;4.22;;;;;;;;;;5085935;28;20176;-66
2023/04/05 00:50:42;;;;;;;10.77;4.45;;;;;;;;;;5087305;28;20095;-67
2023/04/05 00:53:07;;;;;;;11.18;3.92;;;;;;;;;;5087020;28;20062;-65
2023/04/05 00:55:33;;;;;;;10.05;3.90;;;;;;;;;;5087519;28;20048;-67
2023/04/05 00:57:58;;;;;;;10.60;4.35;;;;;;;;;;5086725;28;20094;-66
2023/04/05 01:00:25;;;;;;;10.00;3.70;;;;;;;;;;5087122;28;20021;-67
2023/04/05 01:02:53;;;;;;;13.07;5.03;;;;;;;;;;5086502;28;20072;-66
2023/04/05 01:05:35;;;;;;;7.93;3.83;;;;;;;;;;5086513;28;20103;-66
2023/04/05 01:08:00;;;;;;;8.93;4.32;;;;;;;;;;5085849;28;20558;-65
2023/04/05 01:10:29;;;;;;;11.02;4.47;;;;;;;;;;5087225;28;20032;-68
2023/04/05 01:12:54;;;;;;;12.50;4.70;;;;;;;;;;5087779;28;20050;-68
2023/04/05 01:15:19;;;;;;;9.13;4.00;;;;;;;;;;5087308;28;20516;-66
2023/04/05 01:17:45;;;;;;;9.68;4.25;;;;;;;;;;5086227;28;20020;-69
2023/04/05 01:20:11;;;;;;;8.25;4.10;;;;;;;;;;5086387;28;20043;-66
2023/04/05 01:22:43;;;;;;;9.85;4.20;;;;;;;;;;5086596;28;20016;-69
2023/04/05 01:25:31;;;;;;;9.15;4.07;;;;;;;;;;5068778;28;20051;-68
2023/04/05 01:27:56;;;;;;;7.18;3.90;;;;;;;;;;5085989;28;20023;-66
2023/04/05 01:30:30;;;;;;;9.45;3.97;;;;;;;;;;5089118;28;20426;-67
2023/04/05 01:33:15;;;;;;;11.30;4.30;;;;;;;;;;5090354;28;20485;-68
2023/04/05 01:35:54;;;;;;;10.20;3.90;;;;;;;;;;5090079;28;20075;-68
2023/04/05 01:38:23;;;;;;;8.35;3.90;;;;;;;;;;5089736;28;20024;-67
2023/04/05 01:40:49;;;;;;;9.13;4.53;;;;;;;;;;5088700;28;20052;-65
2023/04/05 01:43:14;;;;;;;7.20;3.78;;;;;;;;;;5090558;28;20048;-68
2023/04/05 01:45:44;;;;;;;16.67;4.53;;;;;;;;;;5090906;28;20383;-67
2023/04/05 01:48:09;;;;;;;10.95;4.88;;;;;;;;;;5089611;28;20144;-65
2023/04/05 01:50:34;;;;;;;12.95;4.50;;;;;;;;;;5089854;28;20556;-67
2023/04/05 01:53:00;;;;;;;8.70;4.10;;;;;;;;;;5090077;28;20032;-68
2023/04/05 01:55:25;;;;;;;7.55;3.75;;;;;;;;;;5090792;28;20099;-67
2023/04/05 01:57:51;;;;;;;10.20;4.32;;;;;;;;;;5089796;28;20020;-68
2023/04/05 02:00:16;;;;;;;16.00;4.40;;;;;;;;;;5089988;28;20042;-67
2023/04/05 02:02:42;;;;;;;9.30;4.10;;;;;;;;;;5089858;28;20623;-69
2023/04/05 02:05:07;;;;;;;9.77;4.25;;;;;;;;;;5089641;28;20444;-66
2023/04/05 02:07:32;;;;;;;7.85;4.18;;;;;;;;;;5088791;28;20326;-67
2023/04/05 02:09:57;;;;;;;16.30;4.57;;;;;;;;;;5090140;28;20024;-66
2023/04/05 02:12:23;;;;;;;11.75;4.28;;;;;;;;;;5090171;28;20031;-67
2023/04/05 02:14:48;;;;;;;15.38;3.95;;;;;;;;;;5090190;28;20031;-65
2023/04/05 02:17:14;;;;;;;10.05;4.78;;;;;;;;;;5089254;28;20035;-66
2023/04/05 02:19:45;;;;;;;9.85;4.70;;;;;;;;;;5090402;28;20571;-67
2023/04/05 02:22:10;;;;;;;15.85;4.88;;;;;;;;;;5089991;28;20047;-67
2023/04/05 02:24:35;;;;;;;10.00;4.75;;;;;;;;;;5089736;28;20044;-67
2023/04/05 02:27:01;;;;;;;9.23;3.83;;;;;;;;;;5089864;28;20034;-65
2023/04/05 02:29:26;;;;;;;8.90;5.13;;;;;;;;;;5089556;28;20095;-67
2023/04/05 02:31:52;;;;;;;11.88;4.43;;;;;;;;;;5090202;28;20016;-67
2023/04/05 02:34:17;;;;;;;7.55;4.00;;;;;;;;;;5088644;28;20439;-67
2023/04/05 02:36:42;;;;;;;8.85;4.28;;;;;;;;;;5088978;28;20024;-67
2023/04/05 02:39:08;;;;;;;9.75;4.47;;;;;;;;;;5086044;28;20019;-65
2023/04/05 02:41:33;;;;;;;8.65;4.30;;;;;;;;;;5089107;28;20192;-68
2023/04/05 02:43:58;;;;;;;10.52;4.40;;;;;;;;;;5088999;28;20020;-66
2023/04/05 02:46:24;;;;;;;8.40;4.00;;;;;;;;;;5070630;28;20027;-68
2023/04/05 02:48:49;;;;;;;10.98;4.85;;;;;;;;;;5089215;28;20081;-69
2023/04/05 02:51:15;;;;;;;8.23;4.18;;;;;;;;;;5088828;28;20020;-67
2023/04/05 02:53:40;;;;;;;13.05;4.45;;;;;;;;;;5088908;28;20028;-66
2023/04/05 02:56:06;;;;;;;14.00;5.07;;;;;;;;;;5089688;28;20035;-67
2023/04/05 02:58:31;;;;;;;8.63;4.03;;;;;;;;;;5088688;28;20012;-67
2023/04/05 03:01:00;;;;;;;16.00;4.38;;;;;;;;;;5089209;28;20020;-65
2023/04/05 03:03:27;;;;;;;11.48;4.38;;;;;;;;;;5088529;28;20020;-67
2023/04/05 03:06:08;;;;;;;9.20;4.13;;;;;;;;;;5088375;28;20528;-68
2023/04/05 03:08:35;;;;;;;13.23;4.55;;;;;;;;;;5079267;28;20615;-69
2023/04/05 03:11:01;;;;;;;8.90;3.88;;;;;;;;;;5089152;28;20191;-67
2023/04/05 03:13:26;;;;;;;10.27;4.50;;;;;;;;;;5088475;28;20099;-68
2023/04/05 03:15:54;;;;;;;11.00;4.63;;;;;;;;;;5088938;28;20016;-68
2023/04/05 03:18:19;;;;;;;10.18;4.20;;;;;;;;;;5087711;28;20016;-66
2023/04/05 03:20:48;;;;;;;11.48;4.18;;;;;;;;;;5087870;28;20024;-69
2023/04/05 03:23:13;;;;;;;8.68;3.88;;;;;;;;;;5088311;28;20039;-68
2023/04/05 03:25:40;;;;;;;10.35;4.63;;;;;;;;;;5089264;28;20022;-66
2023/04/05 03:28:07;;;;;;;10.38;4.47;;;;;;;;;;5087979;28;20106;-67
2023/04/05 03:30:32;;;;;;;12.50;4.65;;;;;;;;;;5089099;28;20203;-67
2023/04/05 03:33:01;;;;;;;12.88;4.40;;;;;;;;;;5088284;28;20016;-66
2023/04/05 03:35:27;;;;;;;10.48;4.57;;;;;;;;;;5088031;28;20016;-67
2023/04/05 03:37:53;;;;;;;14.80;4.32;;;;;;;;;;5087608;28;20107;-66
2023/04/05 03:40:18;;;;;;;8.10;4.40;;;;;;;;;;5088153;28;20131;-67
2023/04/05 03:42:44;;;;;;;11.00;4.75;;;;;;;;;;5087839;28;20103;-67
2023/04/05 03:45:10;;;;;;;10.27;4.82;;;;;;;;;;5088692;28;20019;-67
2023/04/05 03:47:36;;;;;;;10.90;4.70;;;;;;;;;;5087252;28;20012;-67
2023/04/05 03:50:02;;;;;;;9.75;4.07;;;;;;;;;;5088275;28;20063;-66
2023/04/05 03:52:27;;;;;;;11.85;4.45;;;;;;;;;;5086233;28;20139;-68
2023/04/05 03:54:53;;;;;;;10.68;5.03;;;;;;;;;;5088103;28;20095;-65
2023/04/05 03:57:18;;;;;;;9.43;4.78;;;;;;;;;;5087459;28;20035;-65
2023/04/05 03:59:43;;;;;;;12.98;5.18;;;;;;;;;;5080443;28;20016;-67
2023/04/05 04:02:08;;;;;;;11.25;4.70;;;;;;;;;;5088219;28;20020;-66
2023/04/05 04:04:33;;;;;;;8.63;4.57;;;;;;;;;;5087811;28;20016;-68
2023/04/05 04:06:59;;;;;;;14.30;5.18;;;;;;;;;;5086398;28;20028;-66
2023/04/05 04:09:24;;;;;;;13.15;5.32;;;;;;;;;;5087782;28;20046;-68
2023/04/05 04:11:49;;;;;;;14.00;4.97;;;;;;;;;;5088164;28;20027;-65
2023/04/05 04:14:14;;;;;;;12.05;4.55;;;;;;;;;;5088340;28;20031;-67
2023/04/05 04:16:40;;;;;;;11.18;5.05;;;;;;;;;;5087386;28;20035;-67
2023/04/05 04:19:05;;;;;;;11.35;4.40;;;;;;;;;;5087204;28;20020;-66
2023/04/05 04:21:32;;;;;;;8.82;4.45;;;;;;;;;;5087866;28;20086;-65
2023/04/05 04:23:59;;;;;;;15.07;4.95;;;;;;;;;;5098568;28;20386;-65
2023/04/05 04:26:27;;;;;;;9.52;4.57;;;;;;;;;;5099436;28;20020;-67
2023/04/05 04:28:53;;;;;;;9.95;4.93;;;;;;;;;;5067748;28;20493;-68
2023/04/05 04:31:20;;;;;;;10.75;4.95;;;;;;;;;;5092883;28;20098;-65
2023/04/05 04:33:46;;;;;;;12.73;4.35;;;;;;;;;;5087178;28;20030;-68
2023/04/05 04:36:12;;;;;;;10.30;4.97;;;;;;;;;;5086443;28;20027;-67
2023/04/05 04:38:41;;;;;;;8.80;4.95;;;;;;;;;;5086727;28;20032;-67
2023/04/05 04:41:07;;;;;;;9.00;4.72;;;;;;;;;;5087186;28;20465;-67
2023/04/05 04:43:32;;;;;;;14.02;4.68;;;;;;;;;;5088006;28;20181;-68
2023/04/05 04:45:57;;;;;;;9.23;5.30;;;;;;;;;;5087923;28;20020;-67
2023/04/05 04:48:23;;;;;;;12.02;5.25;;;;;;;;;;5105473;28;20106;-68
2023/04/05 04:50:51;;;;;;;8.82;4.28;;;;;;;;;;5093520;28;20067;-64
2023/04/05 04:53:17;;;;;;;9.60;4.32;;;;;;;;;;5093425;28;20043;-67
2023/04/05 04:55:43;;;;;;;10.35;5.10;;;;;;;;;;5101798;28;20039;-67
2023/04/05 04:58:10;;;;;;;12.32;5.07;;;;;;;;;;5093594;28;20024;-65
2023/04/05 05:00:39;;;;;;;9.30;4.13;;;;;;;;;;5088135;28;20687;-67
2023/04/05 05:03:05;;;;;;;9.18;4.25;;;;;;;;;;5089220;28;20032;-69
2023/04/05 05:05:30;;;;;;;9.35;4.50;;;;;;;;;;5098778;28;20034;-66
2023/04/05 05:07:55;;;;;;;9.80;4.95;;;;;;;;;;5093163;28;20027;-68
2023/04/05 05:10:20;;;;;;;14.73;5.57;;;;;;;;;;5097874;28;20063;-68
2023/04/05 05:12:47;;;;;;;11.05;4.32;;;;;;;;;;5094263;28;20056;-68
2023/04/05 05:15:12;;;;;;;8.30;4.00;;;;;;;;;;5095255;28;20600;-67
2023/04/05 05:17:40;;;;;;;12.30;5.32;;;;;;;;;;5089124;28;20075;-68
2023/04/05 05:20:09;;;;;;;11.10;5.43;;;;;;;;;;5088602;28;20039;-67
2023/04/05 05:22:38;;;;;;;8.68;4.32;;;;;;;;;;5108494;28;20035;-68
2023/04/05 05:25:04;;;;;;;7.32;4.57;;;;;;;;;;5090862;28;20194;-66
2023/04/05 05:27:29;;;;;;;10.88;4.75;;;;;;;;;;5094865;28;20059;-68
2023/04/05 05:29:55;;;;;;;11.50;4.55;;;;;;;;;;5083230;28;20066;-66
2023/04/05 05:32:21;;;;;;;8.90;4.15;;;;;;;;;;5092596;28;20433;-68
2023/04/05 05:34:47;;;;;;;9.63;4.35;;;;;;;;;;5081161;28;20494;-68
2023/04/05 05:37:12;;;;;;;16.60;4.93;;;;;;;;;;5095446;28;20034;-68
2023/04/05 05:39:38;;;;;;;8.75;3.85;;;;;;;;;;5086409;28;20054;-67
2023/04/05 05:42:03;;;;;;;10.70;4.88;;;;;;;;;;5089371;28;20539;-69
2023/04/05 05:44:29;;;;;;;11.80;4.43;;;;;;;;;;5090965;28;20024;-65
2023/04/05 05:46:54;;;;;;;9.38;4.38;;;;;;;;;;5092253;28;20492;-68
2023/04/05 05:49:20;;;;;;;9.95;4.63;;;;;;;;;;5089181;28;20028;-67
2023/04/05 05:51:46;;;;;;;15.60;4.50;;;;;;;;;;5087213;28;20008;-67
2023/04/05 05:54:11;;;;;;;11.15;4.35;;;;;;;;;;5094825;28;20023;-64
2023/04/05 05:56:36;;;;;;;7.45;4.20;;;;;;;;;;5088928;28;20094;-70
2023/04/05 05:59:01;;;;;;;15.82;4.60;;;;;;;;;;5089570;28;20027;-66
2023/04/05 06:01:27;;;;;;;10.27;4.55;;;;;;;;;;5090242;28;20016;-66
2023/04/05 06:03:53;;;;;;;11.38;4.00;;;;;;;;;;5092147;28;20173;-67
2023/04/05 06:06:18;;;;;;;10.88;4.28;;;;;;;;;;5091258;28;20485;-67
2023/04/05 06:08:43;;;;;;;12.77;4.63;;;;;;;;;;5090412;28;20034;-68
2023/04/05 06:11:15;;;;;;;11.27;4.47;;;;;;;;;;5087191;28;20491;-66
2023/04/05 06:13:40;;;;;;;12.80;4.20;;;;;;;;;;5089527;28;20094;-65
2023/04/05 06:16:06;;;;;;;17.10;4.57;;;;;;;;;;5089787;28;20031;-68
2023/04/05 06:18:31;;;;;;;12.10;4.80;;;;;;;;;;5088811;28;20024;-67
2023/04/05 06:20:56;;;;;;;10.95;4.70;;;;;;;;;;5088849;28;20020;-68
2023/04/05 06:23:21;;;;;;;11.52;4.22;;;;;;;;;;5088978;28;20024;-68
2023/04/05 06:25:47;;;;;;;11.13;4.40;;;;;;;;;;5091349;28;20435;-69
2023/04/05 06:28:12;;;;;;;14.75;4.78;;;;;;;;;;5099755;28;20028;-67
2023/04/05 06:30:37;;;;;;;15.15;4.55;;;;;;;;;;5089616;28;20027;-66
2023/04/05 06:33:02;;;;;;;17.13;3.92;;;;;;;;;;5092798;28;20118;-68
2023/04/05 06:35:28;;;;;;;9.07;4.18;;;;;;;;;;5093490;28;20020;-71
2023/04/05 06:37:53;;;;;;;12.27;4.28;;;;;;;;;;5093388;28;20028;-68
2023/04/05 06:40:18;;;;;;;10.00;3.55;;;;;;;;;;5090086;28;20024;-68
2023/04/05 06:42:44;;;;;;;9.75;3.88;;;;;;;;;;5089560;28;20112;-67
2023/04/05 06:45:10;;;;;;;7.97;3.88;;;;;;;;;;5091363;28;20012;-68
2023/04/05 06:47:36;;;;;;;10.40;4.10;;;;;;;;;;5091818;28;20115;-67
2023/04/05 06:50:01;;;;;;;11.10;4.35;;;;;;;;;;5104423;28;20046;-69
2023/04/05 06:52:27;;;;;;;11.68;4.22;;;;;;;;;;5090560;28;20023;-67
2023/04/05 06:54:52;;;;;;;11.20;4.97;;;;;;;;;;5098706;28;20043;-68
2023/04/05 06:57:17;;;;;;;14.85;5.25;;;;;;;;;;5094494;28;20040;-67
2023/04/05 06:59:43;;;;;;;30.13;5.03;;;;;;;;;;5079518;28;20109;-68
2023/04/05 07:02:08;;;;;;;9.13;5.13;;;;;;;;;;5086711;28;20020;-69
2023/04/05 07:04:35;;;;;;;13.75;5.03;;;;;;;;;;5103431;28;20466;-69
2023/04/05 07:07:01;;;;;;;16.88;4.72;;;;;;;;;;5091626;28;20012;-68
2023/04/05 07:09:29;;;;;;;9.02;4.03;;;;;;;;;;5089206;28;20020;-66
2023/04/05 07:11:55;;;;;;;13.47;4.77;;;;;;;;;;5095847;28;20087;-70
2023/04/05 07:14:20;;;;;;;9.00;4.65;;;;;;;;;;5100819;28;20046;-69
2023/04/05 07:16:45;;;;;;;10.98;3.85;;;;;;;;;;5088274;28;20024;-68
2023/04/05 07:19:11;;;;;;;8.45;3.85;;;;;;;;;;5089799;28;20015;-67
2023/04/05 07:21:36;;;;;;;10.52;4.35;;;;;;;;;;5092265;28;20020;-65
2023/04/05 07:24:02;;;;;;;12.75;5.07;;;;;;;;;;5087788;28;20028;-68
2023/04/05 07:26:27;;;;;;;9.27;3.90;;;;;;;;;;5088777;28;20024;-67
2023/04/05 07:28:53;;;;;;;10.20;4.25;;;;;;;;;;5093765;28;20023;-68
2023/04/05 07:31:18;;;;;;;18.13;4.28;;;;;;;;;;5088937;28;20016;-67
2023/04/05 07:33:43;;;;;;;26.35;3.80;;;;;;;;;;5088032;28;20540;-66
2023/04/05 07:36:08;;;;;;;11.93;3.70;;;;;;;;;;5088761;28;20343;-70
2023/04/05 07:38:34;;;;;;;14.13;3.70;;;;;;;;;;5095207;28;20115;-71
2023/04/05 07:40:59;;;;;;;15.20;4.22;;;;;;;;;;5088972;28;20370;-66
2023/04/05 07:43:24;;;;;;;7.15;3.80;;;;;;;;;;5089340;28;20028;-69
2023/04/05 07:45:52;;;;;;;15.40;4.32;;;;;;;;;;5086067;28;20020;-68
2023/04/05 07:48:17;;;;;;;17.63;4.78;;;;;;;;;;5086299;28;20043;-68
2023/04/05 07:50:46;;;;;;;9.13;4.10;;;;;;;;;;5087212;28;21489;-69
2023/04/05 07:53:11;;;;;;;12.10;3.55;;;;;;;;;;5089031;28;20359;-68
2023/04/05 07:55:37;;;;;;;9.80;3.50;;;;;;;;;;5096121;28;20101;-67
2023/04/05 07:58:02;;;;;;;8.70;4.20;;;;;;;;;;5095748;28;20026;-69
2023/04/05 08:00:28;;;;;;;9.18;3.83;;;;;;;;;;5087739;28;20115;-67
2023/04/05 08:02:53;;;;;;;9.88;3.42;;;;;;;;;;5090978;28;20117;-69
2023/04/05 08:05:18;;;;;;;8.15;3.20;;;;;;;;;;5089816;28;20103;-68
2023/04/05 08:07:43;;;;;;;9.45;3.72;;;;;;;;;;5079065;28;20584;-71
2023/04/05 08:10:09;;;;;;;10.05;3.53;;;;;;;;;;5087864;28;20108;-70
2023/04/05 08:12:34;;;;;;;8.55;3.40;;;;;;;;;;5093570;28;20065;-65
2023/04/05 08:14:59;;;;;;;12.50;3.63;;;;;;;;;;5094702;28;20521;-70
2023/04/05 08:17:28;;;;;;;8.75;3.10;;;;;;;;;;5103289;28;20041;-66
2023/04/05 08:19:54;;;;;;;;;;;;;;;;;;5089839;28;20023;-70
2023/04/05 08:22:19;;;;;;;7.40;3.40;;;;;;;;;;5093172;28;19908;-70
2023/04/05 08:24:44;;;;;;;9.65;3.78;;;;;;;;;;5088149;28;20016;-67
2023/04/05 08:27:10;;;;;;;9.02;3.00;;;;;;;;;;5098316;28;20048;-70
2023/04/05 08:29:36;;;;;;;8.00;3.35;;;;;;;;;;5090864;28;20028;-67
2023/04/05 08:32:01;;;;;;;6.05;3.22;;;;;;;;;;5086595;28;20093;-71
2023/04/05 08:34:26;;;;;;;6.28;2.95;;;;;;;;;;5097142;28;20035;-71
2023/04/05 08:36:52;;;;;;;9.57;2.95;;;;;;;;;;5086734;28;20101;-69
2023/04/05 08:39:17;;;;;;;12.30;2.97;;;;;;;;;;5099637;28;20020;-70
2023/04/05 08:41:53;;;;;;;8.55;2.60;;;;;;;;;;5093656;28;20020;-68
2023/04/05 08:44:21;;;;;;;7.63;2.50;;;;;;;;;;5086961;28;20042;-69
2023/04/05 08:46:47;;;;;;;6.53;2.22;;;;;;;;;;5093088;28;20091;-67
2023/04/05 08:49:12;;;;;;;4.93;1.92;;;;;;;;;;5100390;28;20016;-70
2023/04/05 08:51:40;;;;;;;8.88;2.60;;;;;;;;;;5104309;28;20031;-70
2023/04/05 08:54:05;;;;;;;6.23;2.80;;;;;;;;;;5093647;28;20103;-68
2023/04/05 08:56:32;;;;;;;12.00;3.40;;;;;;;;;;5092795;28;20987;-67
2023/04/05 08:59:04;;;;;;;9.38;2.47;;;;;;;;;;5094068;28;20590;-71
2023/04/05 09:01:30;;;;;;;6.32;2.63;;;;;;;;;;5096913;28;20422;-67
2023/04/05 09:03:56;;;;;;;8.07;2.47;;;;;;;;;;5093549;28;20026;-74
2023/04/05 09:06:22;;;;;;;12.55;2.80;;;;;;;;;;5093204;28;20027;-68
2023/04/05 09:08:47;;;;;;;5.40;2.15;;;;;;;;;;5093067;28;20389;-66
2023/04/05 09:11:14;;;;;;;6.20;2.30;;;;;;;;;;5093138;28;20457;-66
2023/04/05 09:13:39;;;;;;;11.32;2.42;;;;;;;;;;5093040;28;20016;-67
2023/04/05 09:16:05;;;;;;;6.97;2.10;;;;;;;;;;5076215;28;20055;-66
2023/04/05 09:18:30;;;;;;;5.95;2.55;;;;;;;;;;5073421;28;20468;-66
2023/04/05 09:21:01;;;;;;;7.22;2.88;;;;;;;;;;5097387;28;20023;-67
2023/04/05 09:23:27;;;;;;;4.03;2.17;;;;;;;;;;5095050;28;20024;-68
2023/04/05 09:25:53;;;;;;;9.23;2.65;;;;;;;;;;5087296;28;20074;-67
2023/04/05 09:28:18;;;;;;;6.93;2.47;;;;;;;;;;5094052;28;20020;-70
2023/04/05 09:30:46;;;;;;;10.63;2.55;;;;;;;;;;5092284;28;20440;-70
2023/04/05 09:33:14;;;;;;;5.57;2.30;;;;;;;;;;5092448;28;20024;-70
2023/04/05 09:35:39;;;;;;;4.85;2.15;;;;;;;;;;5079849;28;20473;-67
2023/04/05 09:38:05;;;;;;;4.72;2.08;;;;;;;;;;5097629;28;20047;-69
2023/04/05 09:40:43;;;;;;;4.40;1.90;;;;;;;;;;5090099;28;20024;-68
2023/04/05 09:43:09;;;;;;;8.02;2.38;;;;;;;;;;5093045;28;20024;-66
2023/04/05 09:45:40;;;;;;;6.55;2.40;;;;;;;;;;5095365;28;20048;-69
2023/04/05 09:48:05;;;;;;;5.43;2.25;;;;;;;;;;5091932;28;20027;-70
2023/04/05 09:50:30;;;;;;;6.05;2.50;;;;;;;;;;5089916;28;20016;-69
2023/04/05 09:53:09;;;;;;;7.47;3.30;;;;;;;;;;5087827;28;20036;-68
2023/04/05 09:55:34;;;;;;;7.47;2.72;;;;;;;;;;5088582;28;20103;-68
2023/04/05 09:58:00;;;;;;;8.18;2.10;;;;;;;;;;5089132;28;20035;-66
2023/04/05 10:00:25;;;;;;;6.40;2.60;;;;;;;;;;5093917;28;20346;-70
2023/04/05 10:02:54;;;;;;;8.38;2.30;;;;;;;;;;5088878;28;20020;-67
2023/04/05 10:05:21;;;;;;;;;;;;;;;;;;5071039;28;20111;-67
2023/04/05 10:07:47;;;;;;;6.45;2.25;;;;;;;;;;5087820;28;19912;-69
2023/04/05 10:10:14;;;;;;;5.05;2.10;;;;;;;;;;5093458;28;20483;-69
2023/04/05 10:12:40;;;;;;;5.60;1.98;;;;;;;;;;5089336;28;20504;-66
2023/04/05 10:15:06;;;;;;;4.93;2.10;;;;;;;;;;5091617;28;20023;-69
2023/04/05 10:17:48;;;;;;;7.32;1.98;;;;;;;;;;5090635;28;20031;-68
2023/04/05 10:20:16;;;;;;;6.93;2.03;;;;;;;;;;5100464;28;20031;-67
2023/04/05 10:22:41;;;;;;;4.50;1.83;;;;;;;;;;5089272;28;20055;-67
2023/04/05 10:25:10;;;;;;;7.80;2.00;;;;;;;;;;5092234;28;20058;-67
2023/04/05 10:27:40;;;;;;;6.43;1.83;;;;;;;;;;5085632;28;20394;-67
2023/04/05 10:30:07;;;;;;;6.75;1.75;;;;;;;;;;5085502;28;20380;-66
2023/04/05 10:32:51;;;;;;;4.88;2.05;;;;;;;;;;5072326;28;20684;-67
2023/04/05 10:35:20;;;;;;;6.88;1.70;;;;;;;;;;5080654;28;20023;-66
2023/04/05 10:38:15;;;;;;;4.93;1.98;;;;;;;;;;5084445;28;20230;-69
2023/04/05 10:40:43;;;;;;;5.65;1.80;;;;;;;;;;5014003;28;20108;-66
2023/04/05 10:43:14;;;;;;;3.85;1.70;;;;;;;;;;5086970;28;20115;-70
2023/04/05 10:45:40;;;;;;;7.10;1.85;;;;;;;;;;5088981;28;20385;-67
2023/04/05 10:48:10;;;;;;;6.22;2.13;;;;;;;;;;5088058;28;20444;-68
2023/04/05 10:50:36;;;;;;;4.30;1.70;;;;;;;;;;5098123;28;20106;-66
2023/04/05 10:53:01;;;;;;;6.22;1.90;;;;;;;;;;5099061;28;20514;-68
2023/04/05 10:55:27;;;;;;;7.78;2.40;;;;;;;;;;5073728;28;20130;-73
2023/04/05 10:57:53;;;;;;;10.77;2.17;;;;;;;;;;5098439;28;20028;-66
2023/04/05 11:00:18;;;;;;;4.03;1.58;;;;;;;;;;5091951;28;20043;-67
2023/04/05 11:02:44;;;;;;;7.55;1.90;;;;;;;;;;5096001;28;20027;-70
2023/04/05 11:05:28;;;;;;;6.97;2.22;;;;;;;;;;5089464;28;20040;-70
2023/04/05 11:07:56;;;;;;;6.07;2.17;;;;;;;;;;5089517;28;20069;-68
2023/04/05 11:10:22;;;;;;;14.30;2.20;;;;;;;;;;5091846;28;20539;-71
2023/04/05 11:12:47;;;;;;;9.57;1.60;;;;;;;;;;5089988;28;20359;-68
2023/04/05 11:15:24;;;;;;;5.82;2.17;;;;;;;;;;5088989;28;20426;-70
2023/04/05 11:18:10;;;;;;;3.53;1.73;;;;;;;;;;5087677;28;20016;-71
2023/04/05 11:20:42;;;;;;;7.57;1.90;;;;;;;;;;5077489;28;20032;-69
2023/04/05 11:23:08;;;;;;;5.93;2.00;;;;;;;;;;5091233;28;20047;-66
2023/04/05 11:25:36;;;;;;;3.28;1.63;;;;;;;;;;5089261;28;20108;-70
2023/04/05 11:28:04;;;;;;;4.50;1.77;;;;;;;;;;5089834;28;20027;-69
2023/04/05 11:30:45;;;;;;;9.90;2.28;;;;;;;;;;5086930;28;20023;-65
2023/04/05 11:33:10;;;;;;;5.50;2.50;;;;;;;;;;5082901;28;20069;-68
2023/04/05 11:35:37;;;;;;;8.45;2.15;;;;;;;;;;5087620;28;20024;-68
2023/04/05 11:38:03;;;;;;;6.95;2.38;;;;;;;;;;5086069;28;20114;-67
2023/04/05 11:40:32;;;;;;;8.65;2.05;;;;;;;;;;5083209;28;20061;-69
2023/04/05 11:42:59;;;;;;;4.70;1.85;;;;;;;;;;5088477;28;20047;-68
2023/04/05 11:45:24;;;;;;;6.47;2.22;;;;;;;;;;5088620;28;20020;-69
2023/04/05 11:47:50;;;;;;;5.28;2.05;;;;;;;;;;5095439;28;20102;-69
2023/04/05 11:50:15;;;;;;;7.97;2.10;;;;;;;;;;5094871;28;20024;-72
2023/04/05 11:52:40;;;;;;;5.95;2.00;;;;;;;;;;5093803;28;20016;-67
2023/04/05 11:55:06;;;;;;;3.70;2.05;;;;;;;;;;5090343;28;20462;-65
2023/04/05 11:57:32;;;;;;;5.07;2.30;;;;;;;;;;5087051;28;20105;-67
2023/04/05 11:59:57;;;;;;;7.20;2.25;;;;;;;;;;5087216;28;20074;-66
2023/04/05 12:02:22;;;;;;;10.75;2.50;;;;;;;;;;5088230;28;20059;-68
2023/04/05 12:04:55;;;;;;;14.00;3.40;;;;;;;;;;5090799;28;20107;-68
2023/04/05 12:07:20;;;;;;;7.65;2.78;;;;;;;;;;5068325;28;20404;-69
2023/04/05 12:10:02;;;;;;;6.30;2.30;;;;;;;;;;5092567;28;20026;-69
2023/04/05 12:12:38;;;;;;;7.57;2.00;;;;;;;;;;5088046;28;20107;-67
2023/04/05 12:15:04;;;;;;;9.68;2.15;;;;;;;;;;5087290;28;20030;-69
2023/04/05 12:17:38;;;;;;;6.63;2.50;;;;;;;;;;5087552;28;20043;-68
2023/04/05 12:20:04;;;;;;;5.35;2.15;;;;;;;;;;5090869;28;20504;-68
2023/04/05 12:22:29;;;;;;;6.82;2.30;;;;;;;;;;5090044;28;20062;-66
2023/04/05 12:24:55;;;;;;;9.65;2.10;;;;;;;;;;5090363;28;20019;-71
2023/04/05 12:27:20;;;;;;;8.52;2.30;;;;;;;;;;5097435;28;20097;-68
2023/04/05 12:30:03;;;;;;;6.50;2.45;;;;;;;;;;5087630;28;20035;-64
2023/04/05 12:32:34;;;;;;;5.65;2.22;;;;;;;;;;5091925;28;20015;-66
2023/04/05 12:34:59;;;;;;;3.95;2.00;;;;;;;;;;5091216;28;20090;-68
2023/04/05 12:37:26;;;;;;;6.07;2.20;;;;;;;;;;5092906;28;20411;-69
2023/04/05 12:39:53;;;;;;;7.53;2.60;;;;;;;;;;5094042;28;20394;-67
2023/04/05 12:42:18;;;;;;;4.47;2.28;;;;;;;;;;5080023;28;20028;-66
2023/04/05 12:44:43;;;;;;;9.63;3.05;;;;;;;;;;5085993;28;20546;-69
2023/04/05 12:47:09;;;;;;;6.15;2.00;;;;;;;;;;5081109;28;20465;-66
2023/04/05 12:49:38;;;;;;;4.45;2.25;;;;;;;;;;5087727;28;20474;-68
2023/04/05 12:52:03;;;;;;;8.07;2.17;;;;;;;;;;5080989;28;20126;-68
2023/04/05 12:54:31;;;;;;;4.45;2.15;;;;;;;;;;5087460;28;20024;-65
2023/04/05 12:56:56;;;;;;;7.97;2.50;;;;;;;;;;5072661;28;20020;-64
2023/04/05 12:59:22;;;;;;;8.35;2.15;;;;;;;;;;5086702;28;20146;-66
2023/04/05 13:01:47;;;;;;;9.13;2.50;;;;;;;;;;5088536;28;20142;-65
2023/04/05 13:04:12;;;;;;;6.78;2.30;;;;;;;;;;5090827;28;20488;-67
2023/04/05 13:06:37;;;;;;;5.07;2.40;;;;;;;;;;5085678;28;20039;-68
2023/04/05 13:09:02;;;;;;;4.60;2.00;;;;;;;;;;5087688;28;20031;-66
2023/04/05 13:11:28;;;;;;;12.98;2.97;;;;;;;;;;5088192;28;20020;-67
2023/04/05 13:13:53;;;;;;;5.30;2.22;;;;;;;;;;5086667;28;20070;-65
2023/04/05 13:16:18;;;;;;;10.50;2.95;;;;;;;;;;5077718;28;20042;-67
2023/04/05 13:18:44;;;;;;;5.60;2.30;;;;;;;;;;5086584;28;20024;-66
2023/04/05 13:21:10;;;;;;;4.45;2.30;;;;;;;;;;5086405;28;20100;-66
2023/04/05 13:23:36;;;;;;;6.22;2.20;;;;;;;;;;5088594;28;20016;-67
2023/04/05 13:26:01;;;;;;;8.65;2.08;;;;;;;;;;5092944;28;20020;-65
2023/04/05 13:28:26;;;;;;;5.82;2.60;;;;;;;;;;5087343;28;20388;-69
2023/04/05 13:30:52;;;;;;;7.30;2.10;;;;;;;;;;5091998;28;20017;-68
2023/04/05 13:33:17;;;;;;;4.80;2.15;;;;;;;;;;5085209;28;20067;-68
2023/04/05 13:35:42;;;;;;;7.43;2.65;;;;;;;;;;5089941;28;20024;-69
2023/04/05 13:38:07;;;;;;;6.15;2.35;;;;;;;;;;5089671;28;20024;-66
2023/04/05 13:40:33;;;;;;;4.85;2.00;;;;;;;;;;5091319;28;20028;-66
2023/04/05 13:42:58;;;;;;;4.28;1.90;;;;;;;;;;5090478;28;20035;-68
2023/04/05 13:45:23;;;;;;;4.47;2.15;;;;;;;;;;5090556;28;20086;-68
2023/04/05 13:47:49;;;;;;;7.00;2.25;;;;;;;;;;5092971;28;20107;-70
2023/04/05 13:50:14;;;;;;;4.20;1.83;;;;;;;;;;5087759;28;20531;-67
2023/04/05 13:52:39;;;;;;;6.45;2.10;;;;;;;;;;5092949;28;20097;-70
2023/04/05 13:55:05;;;;;;;5.97;2.00;;;;;;;;;;5090696;28;20012;-71
2023/04/05 13:57:30;;;;;;;5.78;2.17;;;;;;;;;;5089124;28;20490;-68
2023/04/05 13:59:56;;;;;;;5.57;2.42;;;;;;;;;;5089717;28;20615;-67
2023/04/05 14:02:24;;;;;;;7.75;2.72;;;;;;;;;;5089416;28;20485;-70
2023/04/05 14:04:50;;;;;;;5.68;2.03;;;;;;;;;;5081779;28;20020;-68
2023/04/05 14:07:15;;;;;;;5.45;2.17;;;;;;;;;;5088738;28;20082;-68
2023/04/05 14:09:40;;;;;;;9.95;2.92;;;;;;;;;;5090277;28;20016;-68
2023/04/05 14:12:05;;;;;;;6.30;2.92;;;;;;;;;;5088656;28;20024;-68
2023/04/05 14:14:31;;;;;;;6.82;2.85;;;;;;;;;;5081833;28;20119;-69
2023/04/05 14:16:56;;;;;;;6.53;2.33;;;;;;;;;;5089369;28;20028;-66
2023/04/05 14:19:21;;;;;;;6.63;2.45;;;;;;;;;;5091327;28;20457;-65
2023/04/05 14:21:47;;;;;;;3.92;2.13;;;;;;;;;;5089595;28;20077;-69
2023/04/05 14:24:12;;;;;;;5.57;2.83;;;;;;;;;;5096456;28;20039;-75
2023/04/05 14:26:38;;;;;;;6.55;2.38;;;;;;;;;;5088713;28;20112;-67
2023/04/05 14:29:03;;;;;;;16.02;3.50;;;;;;;;;;5093325;28;20180;-70
2023/04/05 14:31:29;;;;;;;5.88;2.50;;;;;;;;;;5085786;28;20027;-70
2023/04/05 14:33:54;;;;;;;4.75;2.17;;;;;;;;;;5074912;28;20035;-71
2023/04/05 14:36:20;;;;;;;8.57;2.72;;;;;;;;;;5097882;28;20027;-69